sensor_id;sensor_type;location;lat;lon;timestamp;temperature;humidity
18266;DHT22;9259;48.194;16.322;2024-01-30T04:43:35;3.60;99.90
18266;DHT22;9259;48.194;16.322;2024-01-30T04:48:32;0.50;99.90
18266;DHT22;9259;48.194;16.322;2024-01-30T04:58:27;0.40;99.90
18266;DHT22;9259;48.194;16.322;2024-01-30T08:01:38;0.30;99.90
18266;DHT22;9259;48.194;16.322;2024-01-30T08:04:06;7.40;99.90
18266;DHT22;9259;48.194;16.322;2024-01-30T08:06:34;7.60;99.90
18266;DHT22;9259;48.194;16.322;2024-01-30T08:09:03;7.70;99.90
18266;DHT22;9259;48.194;16.322;2024-01-30T08:11:31;7.30;99.90
18266;DHT22;9259;48.194;16.322;2024-01-30T08:13:59;7.50;99.90
18266;DHT22;9259;48.194;16.322;2024-01-30T08:16:27;7.20;99.90
18266;DHT22;9259;48.194;16.322;2024-01-30T08:18:55;7.40;99.90
18266;DHT22;9259;48.194;16.322;2024-01-30T08:21:23;8.30;99.90
18266;DHT22;9259;48.194;16.322;2024-01-30T08:23:51;8.70;99.90
18266;DHT22;9259;48.194;16.322;2024-01-30T08:26:20;8.30;99.90
18266;DHT22;9259;48.194;16.322;2024-01-30T08:28:48;7.60;99.90
18266;DHT22;9259;48.194;16.322;2024-01-30T08:31:16;7.90;99.90
18266;DHT22;9259;48.194;16.322;2024-01-30T08:33:44;8.70;99.90
18266;DHT22;9259;48.194;16.322;2024-01-30T08:36:12;8.10;99.90
18266;DHT22;9259;48.194;16.322;2024-01-30T08:38:39;8.60;99.90
18266;DHT22;9259;48.194;16.322;2024-01-30T08:41:07;8.00;99.90
18266;DHT22;9259;48.194;16.322;2024-01-30T08:43:36;8.30;99.90
18266;DHT22;9259;48.194;16.322;2024-01-30T08:46:04;8.30;99.90
18266;DHT22;9259;48.194;16.322;2024-01-30T08:48:32;8.50;99.90
18266;DHT22;9259;48.194;16.322;2024-01-30T08:51:00;9.30;99.90
18266;DHT22;9259;48.194;16.322;2024-01-30T08:53:28;10.70;99.90
18266;DHT22;9259;48.194;16.322;2024-01-30T08:55:55;10.40;99.90
18266;DHT22;9259;48.194;16.322;2024-01-30T08:58:25;9.80;99.90
18266;DHT22;9259;48.194;16.322;2024-01-30T09:00:54;9.40;99.90
18266;DHT22;9259;48.194;16.322;2024-01-30T09:03:22;8.70;99.90
18266;DHT22;9259;48.194;16.322;2024-01-30T09:05:50;8.70;99.90
18266;DHT22;9259;48.194;16.322;2024-01-30T09:08:18;8.90;99.90
18266;DHT22;9259;48.194;16.322;2024-01-30T09:10:45;10.00;99.90
18266;DHT22;9259;48.194;16.322;2024-01-30T09:13:14;9.60;99.90
18266;DHT22;9259;48.194;16.322;2024-01-30T09:15:42;10.30;99.90
18266;DHT22;9259;48.194;16.322;2024-01-30T09:18:11;9.70;99.90
18266;DHT22;9259;48.194;16.322;2024-01-30T09:20:39;10.20;99.90
18266;DHT22;9259;48.194;16.322;2024-01-30T09:23:07;10.80;99.90
18266;DHT22;9259;48.194;16.322;2024-01-30T09:25:35;9.70;99.90
18266;DHT22;9259;48.194;16.322;2024-01-30T09:28:03;10.10;99.90
18266;DHT22;9259;48.194;16.322;2024-01-30T09:30:31;10.10;99.90
18266;DHT22;9259;48.194;16.322;2024-01-30T09:32:59;10.70;99.90
18266;DHT22;9259;48.194;16.322;2024-01-30T09:35:28;10.90;99.90
18266;DHT22;9259;48.194;16.322;2024-01-30T09:37:56;11.20;99.90
18266;DHT22;9259;48.194;16.322;2024-01-30T09:40:24;10.10;99.90
18266;DHT22;9259;48.194;16.322;2024-01-30T09:42:52;10.10;99.90
18266;DHT22;9259;48.194;16.322;2024-01-30T09:45:24;9.40;99.90
18266;DHT22;9259;48.194;16.322;2024-01-30T09:47:53;9.70;99.90
18266;DHT22;9259;48.194;16.322;2024-01-30T09:50:21;10.80;99.90
18266;DHT22;9259;48.194;16.322;2024-01-30T09:52:51;10.90;99.90
18266;DHT22;9259;48.194;16.322;2024-01-30T09:55:20;11.30;99.90
18266;DHT22;9259;48.194;16.322;2024-01-30T09:57:49;11.60;99.90
18266;DHT22;9259;48.194;16.322;2024-01-30T10:00:17;11.90;99.90
18266;DHT22;9259;48.194;16.322;2024-01-30T10:02:45;11.70;99.90
18266;DHT22;9259;48.194;16.322;2024-01-30T10:05:15;12.40;99.90
18266;DHT22;9259;48.194;16.322;2024-01-30T10:07:55;12.00;99.90
18266;DHT22;9259;48.194;16.322;2024-01-30T10:10:24;11.30;99.90
18266;DHT22;9259;48.194;16.322;2024-01-30T10:12:52;11.30;99.90
18266;DHT22;9259;48.194;16.322;2024-01-30T10:15:20;11.80;99.90
18266;DHT22;9259;48.194;16.322;2024-01-30T10:17:48;11.00;99.90
18266;DHT22;9259;48.194;16.322;2024-01-30T10:20:15;10.50;99.90
18266;DHT22;9259;48.194;16.322;2024-01-30T10:22:44;11.00;99.90
18266;DHT22;9259;48.194;16.322;2024-01-30T10:25:14;11.30;99.90
18266;DHT22;9259;48.194;16.322;2024-01-30T10:27:42;11.40;99.90
18266;DHT22;9259;48.194;16.322;2024-01-30T10:30:10;11.50;99.90
18266;DHT22;9259;48.194;16.322;2024-01-30T10:32:38;12.00;99.90
18266;DHT22;9259;48.194;16.322;2024-01-30T10:35:06;11.80;99.90
18266;DHT22;9259;48.194;16.322;2024-01-30T10:37:35;11.70;99.90
18266;DHT22;9259;48.194;16.322;2024-01-30T10:40:04;11.00;99.90
18266;DHT22;9259;48.194;16.322;2024-01-30T10:42:36;10.70;99.90
18266;DHT22;9259;48.194;16.322;2024-01-30T10:45:06;11.50;99.90
18266;DHT22;9259;48.194;16.322;2024-01-30T10:47:36;11.90;99.90
18266;DHT22;9259;48.194;16.322;2024-01-30T10:50:05;12.70;99.90
18266;DHT22;9259;48.194;16.322;2024-01-30T10:52:34;12.70;99.90
18266;DHT22;9259;48.194;16.322;2024-01-30T10:55:04;12.70;99.90
18266;DHT22;9259;48.194;16.322;2024-01-30T10:57:35;12.50;99.90
18266;DHT22;9259;48.194;16.322;2024-01-30T11:00:07;12.60;99.90
18266;DHT22;9259;48.194;16.322;2024-01-30T11:02:39;11.80;99.90
18266;DHT22;9259;48.194;16.322;2024-01-30T11:05:08;12.20;99.90
18266;DHT22;9259;48.194;16.322;2024-01-30T11:07:36;13.00;99.70
18266;DHT22;9259;48.194;16.322;2024-01-30T11:10:07;12.60;99.90
18266;DHT22;9259;48.194;16.322;2024-01-30T11:12:40;12.80;99.90
18266;DHT22;9259;48.194;16.322;2024-01-30T11:15:11;14.20;97.90
18266;DHT22;9259;48.194;16.322;2024-01-30T11:17:44;14.60;96.60
18266;DHT22;9259;48.194;16.322;2024-01-30T11:20:15;14.00;95.20
18266;DHT22;9259;48.194;16.322;2024-01-30T11:22:46;12.70;97.10
18266;DHT22;9259;48.194;16.322;2024-01-30T11:25:15;12.30;97.60
18266;DHT22;9259;48.194;16.322;2024-01-30T11:27:45;12.30;97.60
18266;DHT22;9259;48.194;16.322;2024-01-30T11:30:22;13.40;96.40
18266;DHT22;9259;48.194;16.322;2024-01-30T11:33:04;12.90;96.70
18266;DHT22;9259;48.194;16.322;2024-01-30T11:35:33;12.50;96.80
18266;DHT22;9259;48.194;16.322;2024-01-30T11:38:03;13.30;96.10
18266;DHT22;9259;48.194;16.322;2024-01-30T11:40:32;14.30;95.10
18266;DHT22;9259;48.194;16.322;2024-01-30T11:43:02;13.50;94.80
18266;DHT22;9259;48.194;16.322;2024-01-30T11:45:32;12.70;96.00
18266;DHT22;9259;48.194;16.322;2024-01-30T11:48:00;12.40;96.20
18266;DHT22;9259;48.194;16.322;2024-01-30T11:50:29;13.00;96.70
18266;DHT22;9259;48.194;16.322;2024-01-30T11:52:58;13.80;95.20
18266;DHT22;9259;48.194;16.322;2024-01-30T11:55:26;13.90;94.40
18266;DHT22;9259;48.194;16.322;2024-01-30T11:57:55;14.40;94.30
18266;DHT22;9259;48.194;16.322;2024-01-30T12:00:24;14.60;93.70
18266;DHT22;9259;48.194;16.322;2024-01-30T12:02:54;14.70;93.20
18266;DHT22;9259;48.194;16.322;2024-01-30T12:05:23;14.70;92.60
18266;DHT22;9259;48.194;16.322;2024-01-30T12:07:51;14.50;92.80
18266;DHT22;9259;48.194;16.322;2024-01-30T12:10:19;14.10;93.10
18266;DHT22;9259;48.194;16.322;2024-01-30T12:12:49;13.40;93.90
18266;DHT22;9259;48.194;16.322;2024-01-30T12:15:19;12.30;95.50
18266;DHT22;9259;48.194;16.322;2024-01-30T12:17:50;13.00;95.50
18266;DHT22;9259;48.194;16.322;2024-01-30T12:20:19;14.30;93.90
18266;DHT22;9259;48.194;16.322;2024-01-30T12:22:48;14.00;93.90
18266;DHT22;9259;48.194;16.322;2024-01-30T12:25:18;14.30;93.50
18266;DHT22;9259;48.194;16.322;2024-01-30T12:27:48;13.60;94.20
18266;DHT22;9259;48.194;16.322;2024-01-30T12:30:18;13.30;94.40
18266;DHT22;9259;48.194;16.322;2024-01-30T12:32:50;13.00;95.30
18266;DHT22;9259;48.194;16.322;2024-01-30T12:35:19;13.30;94.60
18266;DHT22;9259;48.194;16.322;2024-01-30T12:37:48;12.50;94.80
18266;DHT22;9259;48.194;16.322;2024-01-30T12:40:17;12.20;95.80
18266;DHT22;9259;48.194;16.322;2024-01-30T12:42:46;12.70;95.30
18266;DHT22;9259;48.194;16.322;2024-01-30T12:45:16;14.30;94.10
18266;DHT22;9259;48.194;16.322;2024-01-30T12:47:46;14.60;93.50
18266;DHT22;9259;48.194;16.322;2024-01-30T12:50:15;14.20;92.90
18266;DHT22;9259;48.194;16.322;2024-01-30T12:52:43;13.60;94.10
18266;DHT22;9259;48.194;16.322;2024-01-30T12:55:11;14.20;93.60
18266;DHT22;9259;48.194;16.322;2024-01-30T12:57:39;15.60;92.10
18266;DHT22;9259;48.194;16.322;2024-01-30T13:00:08;15.00;92.40
18266;DHT22;9259;48.194;16.322;2024-01-30T13:02:36;14.70;92.60
18266;DHT22;9259;48.194;16.322;2024-01-30T13:05:05;14.10;92.50
18266;DHT22;9259;48.194;16.322;2024-01-30T13:07:35;14.40;92.50
18266;DHT22;9259;48.194;16.322;2024-01-30T13:10:03;14.20;92.90
18266;DHT22;9259;48.194;16.322;2024-01-30T13:12:32;13.40;93.40
18266;DHT22;9259;48.194;16.322;2024-01-30T13:15:00;13.40;94.00
18266;DHT22;9259;48.194;16.322;2024-01-30T13:17:30;13.40;94.40
18266;DHT22;9259;48.194;16.322;2024-01-30T13:19:58;13.80;93.40
18266;DHT22;9259;48.194;16.322;2024-01-30T13:22:25;14.50;92.90
18266;DHT22;9259;48.194;16.322;2024-01-30T13:24:55;14.80;92.10
18266;DHT22;9259;48.194;16.322;2024-01-30T13:27:22;14.20;92.70
18266;DHT22;9259;48.194;16.322;2024-01-30T13:29:50;13.40;92.90
18266;DHT22;9259;48.194;16.322;2024-01-30T13:32:18;12.90;93.50
18266;DHT22;9259;48.194;16.322;2024-01-30T13:34:46;12.10;95.20
18266;DHT22;9259;48.194;16.322;2024-01-30T13:37:14;12.80;94.20
18266;DHT22;9259;48.194;16.322;2024-01-30T13:39:42;11.90;94.80
18266;DHT22;9259;48.194;16.322;2024-01-30T13:42:11;11.60;95.30
18266;DHT22;9259;48.194;16.322;2024-01-30T13:44:39;10.70;96.40
18266;DHT22;9259;48.194;16.322;2024-01-30T13:47:06;9.70;98.40
18266;DHT22;9259;48.194;16.322;2024-01-30T13:49:34;9.00;99.90
18266;DHT22;9259;48.194;16.322;2024-01-30T13:52:02;8.60;99.90
18266;DHT22;9259;48.194;16.322;2024-01-30T13:54:31;8.70;99.90
18266;DHT22;9259;48.194;16.322;2024-01-30T13:56:59;8.50;99.90
18266;DHT22;9259;48.194;16.322;2024-01-30T13:59:28;8.30;99.90
18266;DHT22;9259;48.194;16.322;2024-01-30T14:01:56;8.10;99.90
18266;DHT22;9259;48.194;16.322;2024-01-30T14:04:24;8.10;99.90
18266;DHT22;9259;48.194;16.322;2024-01-30T14:06:51;8.00;99.90
18266;DHT22;9259;48.194;16.322;2024-01-30T14:09:19;8.00;99.90
18266;DHT22;9259;48.194;16.322;2024-01-30T14:11:47;8.10;99.90
18266;DHT22;9259;48.194;16.322;2024-01-30T14:14:15;8.00;99.90
18266;DHT22;9259;48.194;16.322;2024-01-30T14:16:44;7.80;99.90
18266;DHT22;9259;48.194;16.322;2024-01-30T14:19:12;7.80;99.90
18266;DHT22;9259;48.194;16.322;2024-01-30T14:21:40;7.60;99.90
18266;DHT22;9259;48.194;16.322;2024-01-30T14:24:08;7.60;99.90
18266;DHT22;9259;48.194;16.322;2024-01-30T14:26:36;7.60;99.90
18266;DHT22;9259;48.194;16.322;2024-01-30T14:29:04;7.40;99.90
18266;DHT22;9259;48.194;16.322;2024-01-30T14:31:32;7.30;99.90
18266;DHT22;9259;48.194;16.322;2024-01-30T14:34:01;7.20;99.90
18266;DHT22;9259;48.194;16.322;2024-01-30T14:36:29;7.30;99.90
18266;DHT22;9259;48.194;16.322;2024-01-30T14:38:57;7.40;99.90
18266;DHT22;9259;48.194;16.322;2024-01-30T14:41:24;7.40;99.90
18266;DHT22;9259;48.194;16.322;2024-01-30T14:43:52;7.40;99.90
18266;DHT22;9259;48.194;16.322;2024-01-30T14:46:20;7.30;99.90
18266;DHT22;9259;48.194;16.322;2024-01-30T14:48:48;7.20;99.90
18266;DHT22;9259;48.194;16.322;2024-01-30T14:51:19;7.20;99.90
18266;DHT22;9259;48.194;16.322;2024-01-30T14:53:46;7.20;99.90
18266;DHT22;9259;48.194;16.322;2024-01-30T14:56:14;7.20;99.90
18266;DHT22;9259;48.194;16.322;2024-01-30T14:58:42;7.10;99.90
18266;DHT22;9259;48.194;16.322;2024-01-30T15:01:10;7.00;99.90
18266;DHT22;9259;48.194;16.322;2024-01-30T15:03:38;7.00;99.90
18266;DHT22;9259;48.194;16.322;2024-01-30T15:06:06;6.90;99.90
18266;DHT22;9259;48.194;16.322;2024-01-30T15:08:36;6.80;99.90
18266;DHT22;9259;48.194;16.322;2024-01-30T15:11:04;6.90;99.90
18266;DHT22;9259;48.194;16.322;2024-01-30T15:13:32;6.80;99.90
18266;DHT22;9259;48.194;16.322;2024-01-30T15:16:00;6.80;99.90
18266;DHT22;9259;48.194;16.322;2024-01-30T15:20:57;6.80;99.90
18266;DHT22;9259;48.194;16.322;2024-01-30T15:23:25;6.70;99.90
18266;DHT22;9259;48.194;16.322;2024-01-30T15:25:54;6.60;99.90
18266;DHT22;9259;48.194;16.322;2024-01-30T15:28:34;6.60;99.90
18266;DHT22;9259;48.194;16.322;2024-01-30T15:31:03;6.50;99.90
18266;DHT22;9259;48.194;16.322;2024-01-30T15:33:32;6.50;99.90
18266;DHT22;9259;48.194;16.322;2024-01-30T15:36:00;6.40;99.90
18266;DHT22;9259;48.194;16.322;2024-01-30T15:38:28;6.30;99.90
18266;DHT22;9259;48.194;16.322;2024-01-30T15:40:58;6.30;99.90
18266;DHT22;9259;48.194;16.322;2024-01-30T15:43:27;6.30;99.90
18266;DHT22;9259;48.194;16.322;2024-01-30T15:45:54;6.20;99.90
18266;DHT22;9259;48.194;16.322;2024-01-30T15:48:22;6.20;99.90
18266;DHT22;9259;48.194;16.322;2024-01-30T15:50:50;6.20;99.90
18266;DHT22;9259;48.194;16.322;2024-01-30T15:53:20;6.10;99.90
18266;DHT22;9259;48.194;16.322;2024-01-30T15:55:48;6.10;99.90
18266;DHT22;9259;48.194;16.322;2024-01-30T15:58:17;6.00;99.90
18266;DHT22;9259;48.194;16.322;2024-01-30T16:00:45;6.00;99.90
18266;DHT22;9259;48.194;16.322;2024-01-30T16:03:13;5.90;99.90
18266;DHT22;9259;48.194;16.322;2024-01-30T16:05:41;5.90;99.90
18266;DHT22;9259;48.194;16.322;2024-01-30T16:08:09;5.80;99.90
18266;DHT22;9259;48.194;16.322;2024-01-30T16:10:37;5.80;99.90
18266;DHT22;9259;48.194;16.322;2024-01-30T16:13:04;5.80;99.90
18266;DHT22;9259;48.194;16.322;2024-01-30T16:15:33;5.70;99.90
18266;DHT22;9259;48.194;16.322;2024-01-30T16:18:02;5.70;99.90
18266;DHT22;9259;48.194;16.322;2024-01-30T16:20:30;5.70;99.90
18266;DHT22;9259;48.194;16.322;2024-01-30T16:22:58;5.60;99.90
18266;DHT22;9259;48.194;16.322;2024-01-30T16:25:25;5.60;99.90
18266;DHT22;9259;48.194;16.322;2024-01-30T16:27:53;5.50;99.90
18266;DHT22;9259;48.194;16.322;2024-01-30T16:30:21;5.50;99.90
18266;DHT22;9259;48.194;16.322;2024-01-30T16:32:50;5.50;99.90
18266;DHT22;9259;48.194;16.322;2024-01-30T16:35:18;5.40;99.90
18266;DHT22;9259;48.194;16.322;2024-01-30T16:37:46;5.40;99.90
18266;DHT22;9259;48.194;16.322;2024-01-30T16:40:14;5.30;99.90
18266;DHT22;9259;48.194;16.322;2024-01-30T16:42:41;5.30;99.90
18266;DHT22;9259;48.194;16.322;2024-01-30T16:45:09;5.30;99.90
18266;DHT22;9259;48.194;16.322;2024-01-30T16:47:37;5.20;99.90
18266;DHT22;9259;48.194;16.322;2024-01-30T16:50:07;5.20;99.90
18266;DHT22;9259;48.194;16.322;2024-01-30T16:52:34;5.20;99.90
18266;DHT22;9259;48.194;16.322;2024-01-30T16:55:03;5.10;99.90
18266;DHT22;9259;48.194;16.322;2024-01-30T16:57:31;5.10;99.90
18266;DHT22;9259;48.194;16.322;2024-01-30T16:59:59;5.00;99.90
18266;DHT22;9259;48.194;16.322;2024-01-30T17:02:26;5.00;99.90
18266;DHT22;9259;48.194;16.322;2024-01-30T17:04:54;5.00;99.90
18266;DHT22;9259;48.194;16.322;2024-01-30T17:07:26;4.90;99.90
18266;DHT22;9259;48.194;16.322;2024-01-30T17:10:00;4.90;99.90
18266;DHT22;9259;48.194;16.322;2024-01-30T17:12:28;4.90;99.90
18266;DHT22;9259;48.194;16.322;2024-01-30T17:14:57;4.80;99.90
18266;DHT22;9259;48.194;16.322;2024-01-30T17:17:25;4.80;99.90
18266;DHT22;9259;48.194;16.322;2024-01-30T17:19:52;4.80;99.90
18266;DHT22;9259;48.194;16.322;2024-01-30T17:22:20;4.80;99.90
18266;DHT22;9259;48.194;16.322;2024-01-30T17:24:50;4.70;99.90
18266;DHT22;9259;48.194;16.322;2024-01-30T17:27:17;4.70;99.90
18266;DHT22;9259;48.194;16.322;2024-01-30T17:29:46;4.70;99.90
18266;DHT22;9259;48.194;16.322;2024-01-30T17:32:14;4.70;99.90
18266;DHT22;9259;48.194;16.322;2024-01-30T17:34:41;4.60;99.90
18266;DHT22;9259;48.194;16.322;2024-01-30T17:37:09;4.70;99.90
18266;DHT22;9259;48.194;16.322;2024-01-30T17:39:37;4.80;99.90
18266;DHT22;9259;48.194;16.322;2024-01-30T17:42:06;4.80;99.90
18266;DHT22;9259;48.194;16.322;2024-01-30T17:44:34;4.70;99.90
18266;DHT22;9259;48.194;16.322;2024-01-30T17:47:06;4.60;99.90
18266;DHT22;9259;48.194;16.322;2024-01-30T17:49:34;4.60;99.90
18266;DHT22;9259;48.194;16.322;2024-01-30T17:52:02;4.50;99.90
18266;DHT22;9259;48.194;16.322;2024-01-30T17:54:30;4.40;99.90
18266;DHT22;9259;48.194;16.322;2024-01-30T17:56:58;4.40;99.90
18266;DHT22;9259;48.194;16.322;2024-01-30T17:59:27;4.40;99.90
18266;DHT22;9259;48.194;16.322;2024-01-30T18:01:55;4.30;99.90
18266;DHT22;9259;48.194;16.322;2024-01-30T18:04:23;4.30;99.90
18266;DHT22;9259;48.194;16.322;2024-01-30T18:06:52;4.20;99.90
18266;DHT22;9259;48.194;16.322;2024-01-30T18:09:20;4.20;99.90
18266;DHT22;9259;48.194;16.322;2024-01-30T18:11:48;4.10;99.90
18266;DHT22;9259;48.194;16.322;2024-01-30T18:14:16;4.10;99.90
18266;DHT22;9259;48.194;16.322;2024-01-30T18:16:46;4.10;99.90
18266;DHT22;9259;48.194;16.322;2024-01-30T18:19:14;4.00;99.90
18266;DHT22;9259;48.194;16.322;2024-01-30T18:21:42;4.00;99.90
18266;DHT22;9259;48.194;16.322;2024-01-30T18:24:10;4.00;99.90
18266;DHT22;9259;48.194;16.322;2024-01-30T18:26:38;4.00;99.90
18266;DHT22;9259;48.194;16.322;2024-01-30T18:29:05;4.00;99.90
18266;DHT22;9259;48.194;16.322;2024-01-30T18:31:34;3.90;99.90
18266;DHT22;9259;48.194;16.322;2024-01-30T18:34:05;3.90;99.90
18266;DHT22;9259;48.194;16.322;2024-01-30T18:36:33;3.80;99.90
18266;DHT22;9259;48.194;16.322;2024-01-30T18:39:03;3.80;99.90
18266;DHT22;9259;48.194;16.322;2024-01-30T18:41:32;3.80;99.90
18266;DHT22;9259;48.194;16.322;2024-01-30T18:44:00;3.80;99.90
18266;DHT22;9259;48.194;16.322;2024-01-30T18:46:30;3.70;99.90
18266;DHT22;9259;48.194;16.322;2024-01-30T18:48:59;3.70;99.90
18266;DHT22;9259;48.194;16.322;2024-01-30T18:51:30;3.70;99.90
18266;DHT22;9259;48.194;16.322;2024-01-30T18:53:59;3.60;99.90
18266;DHT22;9259;48.194;16.322;2024-01-30T18:56:29;3.60;99.90
18266;DHT22;9259;48.194;16.322;2024-01-30T18:58:59;3.60;99.90
18266;DHT22;9259;48.194;16.322;2024-01-30T19:01:30;3.50;99.90
18266;DHT22;9259;48.194;16.322;2024-01-30T19:04:01;3.50;99.90
18266;DHT22;9259;48.194;16.322;2024-01-30T19:06:33;3.40;99.90
18266;DHT22;9259;48.194;16.322;2024-01-30T19:09:02;3.40;99.90
18266;DHT22;9259;48.194;16.322;2024-01-30T19:11:31;3.40;99.90
18266;DHT22;9259;48.194;16.322;2024-01-30T19:14:01;3.40;99.90
18266;DHT22;9259;48.194;16.322;2024-01-30T19:16:31;3.30;99.90
18266;DHT22;9259;48.194;16.322;2024-01-30T19:19:01;3.30;99.90
18266;DHT22;9259;48.194;16.322;2024-01-30T19:21:37;3.30;99.90
18266;DHT22;9259;48.194;16.322;2024-01-30T19:24:07;3.30;99.90
18266;DHT22;9259;48.194;16.322;2024-01-30T19:26:36;3.30;99.90
18266;DHT22;9259;48.194;16.322;2024-01-30T19:29:05;3.30;99.90
18266;DHT22;9259;48.194;16.322;2024-01-30T19:31:36;3.20;99.90
18266;DHT22;9259;48.194;16.322;2024-01-30T19:34:07;3.30;99.90
18266;DHT22;9259;48.194;16.322;2024-01-30T19:36:39;3.30;99.90
18266;DHT22;9259;48.194;16.322;2024-01-30T19:39:09;3.20;99.90
18266;DHT22;9259;48.194;16.322;2024-01-30T19:41:40;3.20;99.90
18266;DHT22;9259;48.194;16.322;2024-01-30T19:44:10;3.20;99.90
18266;DHT22;9259;48.194;16.322;2024-01-30T19:46:39;3.20;99.90
18266;DHT22;9259;48.194;16.322;2024-01-30T19:49:09;3.10;99.90
18266;DHT22;9259;48.194;16.322;2024-01-30T19:51:40;3.10;99.90
18266;DHT22;9259;48.194;16.322;2024-01-30T19:54:10;3.10;99.90
18266;DHT22;9259;48.194;16.322;2024-01-30T19:56:41;3.10;99.90
18266;DHT22;9259;48.194;16.322;2024-01-30T19:59:10;3.00;99.90
18266;DHT22;9259;48.194;16.322;2024-01-30T20:01:39;3.00;99.90
18266;DHT22;9259;48.194;16.322;2024-01-30T20:04:08;3.00;99.90
18266;DHT22;9259;48.194;16.322;2024-01-30T20:06:40;3.00;99.90
18266;DHT22;9259;48.194;16.322;2024-01-30T20:09:10;3.00;99.90
18266;DHT22;9259;48.194;16.322;2024-01-30T20:11:38;3.00;99.90
18266;DHT22;9259;48.194;16.322;2024-01-30T20:14:07;2.90;99.90
18266;DHT22;9259;48.194;16.322;2024-01-30T20:16:35;2.90;99.90
18266;DHT22;9259;48.194;16.322;2024-01-30T20:19:03;2.90;99.90
18266;DHT22;9259;48.194;16.322;2024-01-30T20:21:33;2.80;99.90
18266;DHT22;9259;48.194;16.322;2024-01-30T20:24:05;2.90;99.90
18266;DHT22;9259;48.194;16.322;2024-01-30T20:26:35;2.80;99.90
18266;DHT22;9259;48.194;16.322;2024-01-30T20:29:03;2.80;99.90
18266;DHT22;9259;48.194;16.322;2024-01-30T20:31:32;2.80;99.90
18266;DHT22;9259;48.194;16.322;2024-01-30T20:34:00;2.70;99.90
18266;DHT22;9259;48.194;16.322;2024-01-30T20:36:28;2.70;99.90
18266;DHT22;9259;48.194;16.322;2024-01-30T20:38:58;2.70;99.90
18266;DHT22;9259;48.194;16.322;2024-01-30T20:41:35;2.70;99.90
18266;DHT22;9259;48.194;16.322;2024-01-30T20:44:05;2.70;99.90
18266;DHT22;9259;48.194;16.322;2024-01-30T20:46:35;2.70;99.90
18266;DHT22;9259;48.194;16.322;2024-01-30T20:49:07;2.70;99.90
18266;DHT22;9259;48.194;16.322;2024-01-30T20:51:38;2.60;99.90
18266;DHT22;9259;48.194;16.322;2024-01-30T20:54:07;2.60;99.90
18266;DHT22;9259;48.194;16.322;2024-01-30T20:56:37;2.60;99.90
18266;DHT22;9259;48.194;16.322;2024-01-30T20:59:06;2.70;99.90
18266;DHT22;9259;48.194;16.322;2024-01-30T21:01:35;2.60;99.90
18266;DHT22;9259;48.194;16.322;2024-01-30T21:04:04;2.60;99.90
18266;DHT22;9259;48.194;16.322;2024-01-30T21:06:33;2.60;99.90
18266;DHT22;9259;48.194;16.322;2024-01-30T21:09:01;2.60;99.90
18266;DHT22;9259;48.194;16.322;2024-01-30T21:11:30;2.60;99.90
18266;DHT22;9259;48.194;16.322;2024-01-30T21:13:59;2.60;99.90
18266;DHT22;9259;48.194;16.322;2024-01-30T21:16:27;2.60;99.90
18266;DHT22;9259;48.194;16.322;2024-01-30T21:18:55;2.60;99.90
18266;DHT22;9259;48.194;16.322;2024-01-30T21:21:24;2.50;99.90
18266;DHT22;9259;48.194;16.322;2024-01-30T21:23:52;2.60;99.90
18266;DHT22;9259;48.194;16.322;2024-01-30T21:26:20;2.50;99.90
18266;DHT22;9259;48.194;16.322;2024-01-30T21:28:48;2.50;99.90
18266;DHT22;9259;48.194;16.322;2024-01-30T21:31:18;2.60;99.90
18266;DHT22;9259;48.194;16.322;2024-01-30T21:33:47;2.60;99.90
18266;DHT22;9259;48.194;16.322;2024-01-30T21:36:16;2.60;99.90
18266;DHT22;9259;48.194;16.322;2024-01-30T21:38:44;2.50;99.90
18266;DHT22;9259;48.194;16.322;2024-01-30T21:41:13;2.50;99.90
18266;DHT22;9259;48.194;16.322;2024-01-30T21:43:42;2.60;99.90
18266;DHT22;9259;48.194;16.322;2024-01-30T21:46:11;2.50;99.90
18266;DHT22;9259;48.194;16.322;2024-01-30T21:48:40;2.50;99.90
18266;DHT22;9259;48.194;16.322;2024-01-30T21:51:08;2.30;99.90
18266;DHT22;9259;48.194;16.322;2024-01-30T21:53:35;2.30;99.90
18266;DHT22;9259;48.194;16.322;2024-01-30T21:56:04;2.20;99.90
18266;DHT22;9259;48.194;16.322;2024-01-30T21:58:32;2.20;99.90
18266;DHT22;9259;48.194;16.322;2024-01-30T22:01:00;2.10;99.90
18266;DHT22;9259;48.194;16.322;2024-01-30T22:03:28;2.10;99.90
18266;DHT22;9259;48.194;16.322;2024-01-30T22:05:57;2.10;99.90
18266;DHT22;9259;48.194;16.322;2024-01-30T22:08:24;2.10;99.90
18266;DHT22;9259;48.194;16.322;2024-01-30T22:10:52;2.10;99.90
18266;DHT22;9259;48.194;16.322;2024-01-30T22:13:20;2.10;99.90
18266;DHT22;9259;48.194;16.322;2024-01-30T22:15:49;2.10;99.90
18266;DHT22;9259;48.194;16.322;2024-01-30T22:18:17;2.00;99.90
18266;DHT22;9259;48.194;16.322;2024-01-30T22:20:45;2.00;99.90
18266;DHT22;9259;48.194;16.322;2024-01-30T22:23:14;2.00;99.90
18266;DHT22;9259;48.194;16.322;2024-01-30T22:25:42;1.90;99.90
18266;DHT22;9259;48.194;16.322;2024-01-30T22:28:10;1.90;99.90
18266;DHT22;9259;48.194;16.322;2024-01-30T22:30:38;1.90;99.90
18266;DHT22;9259;48.194;16.322;2024-01-30T22:33:06;1.90;99.90
18266;DHT22;9259;48.194;16.322;2024-01-30T22:35:35;1.80;99.90
18266;DHT22;9259;48.194;16.322;2024-01-30T22:38:03;1.70;99.90
18266;DHT22;9259;48.194;16.322;2024-01-30T22:40:35;1.70;99.90
18266;DHT22;9259;48.194;16.322;2024-01-30T22:43:03;1.70;99.90
18266;DHT22;9259;48.194;16.322;2024-01-30T22:45:31;1.70;99.90
18266;DHT22;9259;48.194;16.322;2024-01-30T22:47:59;1.80;99.90
18266;DHT22;9259;48.194;16.322;2024-01-30T22:50:27;1.70;99.90
18266;DHT22;9259;48.194;16.322;2024-01-30T22:52:55;1.70;99.90
18266;DHT22;9259;48.194;16.322;2024-01-30T22:55:23;1.70;99.90
18266;DHT22;9259;48.194;16.322;2024-01-30T22:57:52;1.80;99.90
18266;DHT22;9259;48.194;16.322;2024-01-30T23:00:20;1.70;99.90
18266;DHT22;9259;48.194;16.322;2024-01-30T23:02:52;1.70;99.90
18266;DHT22;9259;48.194;16.322;2024-01-30T23:05:20;1.70;99.90
18266;DHT22;9259;48.194;16.322;2024-01-30T23:07:48;1.70;99.90
18266;DHT22;9259;48.194;16.322;2024-01-30T23:10:16;1.60;99.90
18266;DHT22;9259;48.194;16.322;2024-01-30T23:12:45;1.70;99.90
18266;DHT22;9259;48.194;16.322;2024-01-30T23:15:14;1.80;99.90
18266;DHT22;9259;48.194;16.322;2024-01-30T23:17:42;1.70;99.90
18266;DHT22;9259;48.194;16.322;2024-01-30T23:20:10;1.70;99.90
18266;DHT22;9259;48.194;16.322;2024-01-30T23:22:40;1.70;99.90
18266;DHT22;9259;48.194;16.322;2024-01-30T23:25:08;1.80;99.90
18266;DHT22;9259;48.194;16.322;2024-01-30T23:27:37;1.60;99.90
18266;DHT22;9259;48.194;16.322;2024-01-30T23:30:06;1.60;99.90
18266;DHT22;9259;48.194;16.322;2024-01-30T23:32:36;1.60;99.90
18266;DHT22;9259;48.194;16.322;2024-01-30T23:35:05;1.70;99.90
18266;DHT22;9259;48.194;16.322;2024-01-30T23:37:33;1.70;99.90
18266;DHT22;9259;48.194;16.322;2024-01-30T23:40:01;1.70;99.90
18266;DHT22;9259;48.194;16.322;2024-01-30T23:42:30;1.70;99.90
18266;DHT22;9259;48.194;16.322;2024-01-30T23:44:58;1.60;99.90
18266;DHT22;9259;48.194;16.322;2024-01-30T23:47:26;1.50;99.90